Terminal Aerodrome Forecast
Issued by NWS Blacksburg, VA

Home | Current Version | Previous Version | Text Only | Print | Product List | Glossary On
Versions: 1 2 3 4 5 6 7 8 9 10 11 12 13 14 15 16 17 18 19 20 21 22 23 24 25 26 27 28
000
FTUS41 KRNK 260540
TAFROA
TAF
KROA 260540Z 2606/2706 24003KT P6SM BKN100
     FM261200 21004KT P6SM SCT020 BKN080
     FM261600 18006KT P6SM BKN040 OVC080
      TEMPO 2618/2622 4SM TSRA OVC030CB
     FM262200 16006KT P6SM -SHRA BKN050 OVC120
     FM270300 21003KT P6SM SCT020 OVC150=

USA.gov is the U.S. government's official web portal to all federal, state and local government web resources and services.